createdAt,value
2016-04-09T00:00:43.476Z,0
2016-04-09T00:01:43.667Z,0
2016-04-09T00:02:43.670Z,0
2016-04-09T00:03:43.453Z,0
2016-04-09T00:04:43.862Z,0
2016-04-09T00:05:43.427Z,0
2016-04-09T00:06:43.445Z,0
2016-04-09T00:07:43.464Z,0
2016-04-09T00:08:43.467Z,0
2016-04-09T00:09:57.954Z,0
2016-04-09T00:10:44.097Z,0
2016-04-09T00:11:43.475Z,0
2016-04-09T00:12:43.461Z,0
2016-04-09T00:13:43.449Z,0
2016-04-09T00:14:43.483Z,0
2016-04-09T00:15:44.095Z,0
2016-04-09T00:16:42.972Z,0
2016-04-09T00:17:43.475Z,0
2016-04-09T00:18:43.446Z,0
2016-04-09T00:19:43.683Z,0
2016-04-09T00:20:43.233Z,0
2016-04-09T00:21:43.455Z,0
2016-04-09T00:23:57.773Z,0
2016-04-09T00:24:43.713Z,0
2016-04-09T00:25:43.496Z,0
2016-04-09T00:26:43.734Z,0
2016-04-09T00:27:43.455Z,0
2016-04-09T00:28:42.973Z,0
2016-04-09T00:29:43.460Z,0
2016-04-09T00:30:43.462Z,0
2016-04-09T00:31:43.012Z,0
2016-04-09T00:32:44.312Z,0
2016-04-09T00:33:43.752Z,0
2016-04-09T00:34:43.005Z,0
2016-04-09T00:35:57.992Z,0
2016-04-09T00:36:43.729Z,0
2016-04-09T00:37:43.467Z,0
2016-04-09T00:38:43.672Z,0
2016-04-09T00:39:57.784Z,0
2016-04-09T00:40:43.489Z,0
2016-04-09T00:41:57.586Z,0
2016-04-09T00:42:43.480Z,0
2016-04-09T00:43:43.545Z,0
2016-04-09T00:44:43.939Z,0
2016-04-09T00:45:43.723Z,0
2016-04-09T00:46:43.694Z,0
2016-04-09T00:47:43.588Z,0
2016-04-09T00:48:57.605Z,0
2016-04-09T00:49:43.889Z,0
2016-04-09T00:50:43.689Z,0
2016-04-09T00:51:43.473Z,0
2016-04-09T00:52:43.882Z,0
2016-04-09T00:53:43.478Z,0
2016-04-09T00:54:43.496Z,0
2016-04-09T00:55:43.687Z,0
2016-04-09T00:56:43.501Z,0
2016-04-09T00:57:43.505Z,0
2016-04-09T00:58:43.507Z,0
2016-04-09T00:59:43.495Z,0
2016-04-09T01:00:43.482Z,0
2016-04-09T01:01:43.484Z,0
2016-04-09T01:02:43.690Z,0
2016-04-09T01:03:57.583Z,0
2016-04-09T01:04:43.492Z,0
2016-04-09T01:05:43.932Z,0
2016-04-09T01:06:43.919Z,0
2016-04-09T01:07:43.516Z,0
2016-04-09T01:08:43.564Z,0
2016-04-09T01:09:43.489Z,0
2016-04-09T01:10:43.492Z,0
2016-04-09T01:11:57.589Z,0
2016-04-09T01:12:43.498Z,0
2016-04-09T01:13:43.486Z,0
2016-04-09T01:14:43.503Z,0
2016-04-09T01:15:43.897Z,0
2016-04-09T01:16:43.493Z,0
2016-04-09T01:17:43.496Z,0
2016-04-09T01:18:43.514Z,0
2016-04-09T01:19:43.501Z,0
2016-04-09T01:20:43.489Z,0
2016-04-09T01:21:43.897Z,0
2016-04-09T01:22:43.494Z,0
2016-04-09T01:23:43.481Z,0
2016-04-09T01:24:43.499Z,0
2016-04-09T01:25:43.502Z,0
2016-04-09T01:26:43.488Z,0
2016-04-09T01:27:43.507Z,0
2016-04-09T01:28:43.369Z,0
2016-04-09T01:29:43.512Z,0
2016-04-09T01:30:43.515Z,0
2016-04-09T01:31:43.939Z,0
2016-04-09T01:32:43.723Z,0
2016-04-09T01:33:43.492Z,0
2016-04-09T01:34:43.495Z,0
2016-04-09T01:35:43.732Z,0
2016-04-09T01:36:43.710Z,0
2016-04-09T01:37:57.587Z,0
2016-04-09T01:38:43.496Z,0
2016-04-09T01:39:43.498Z,0
2016-04-09T01:40:43.689Z,0
2016-04-09T01:41:43.488Z,0
2016-04-09T01:42:43.709Z,0
2016-04-09T01:43:43.556Z,0
2016-04-09T01:44:43.480Z,0
2016-04-09T01:45:43.936Z,0
2016-04-09T01:46:43.501Z,0
2016-04-09T01:47:43.692Z,0
2016-04-09T01:48:43.476Z,0
2016-04-09T01:49:43.495Z,0
2016-04-09T01:50:43.512Z,0
2016-04-09T01:51:44.328Z,0
2016-04-09T01:52:43.517Z,0
2016-04-09T01:53:57.802Z,0
2016-04-09T01:54:43.477Z,0
2016-04-09T01:55:43.494Z,0
2016-04-09T01:56:43.497Z,0
2016-04-09T01:57:43.499Z,0
2016-04-09T01:58:43.487Z,0
2016-04-09T01:59:43.490Z,0
2016-04-09T02:00:43.696Z,0
2016-04-09T02:01:43.527Z,0
2016-04-09T02:02:43.732Z,0
2016-04-09T02:03:43.688Z,0
2016-04-09T02:04:43.503Z,0
2016-04-09T02:05:43.943Z,0
2016-04-09T02:06:43.493Z,0
2016-04-09T02:07:43.714Z,0
2016-04-09T02:08:43.482Z,0
2016-04-09T02:09:57.594Z,0
2016-04-09T02:10:43.487Z,0
2016-04-09T02:11:43.709Z,0
2016-04-09T02:12:43.509Z,0
2016-04-09T02:13:43.730Z,0
2016-04-09T02:14:43.702Z,0
2016-04-09T02:15:57.845Z,0
2016-04-09T02:16:43.723Z,0
2016-04-09T02:17:43.554Z,0
2016-04-09T02:18:43.712Z,0
2016-04-09T02:19:43.028Z,0
2016-04-09T02:20:43.514Z,0
2016-04-09T02:21:43.720Z,0
2016-04-09T02:22:44.145Z,0
2016-04-09T02:23:57.648Z,0
2016-04-09T02:24:58.011Z,0
2016-04-09T02:25:43.481Z,0
2016-04-09T02:26:43.516Z,0
2016-04-09T02:27:43.691Z,0
2016-04-09T02:28:43.693Z,0
2016-04-09T02:29:43.899Z,0
2016-04-09T02:30:57.823Z,0
2016-04-09T02:31:43.466Z,0
2016-04-09T02:32:43.734Z,0
2016-04-09T02:33:43.534Z,0
2016-04-09T02:34:43.474Z,0
2016-04-09T02:35:43.679Z,0
2016-04-09T02:36:43.510Z,0
2016-04-09T02:37:43.701Z,0
2016-04-09T02:38:43.720Z,0
2016-04-09T02:39:43.723Z,0
2016-04-09T02:40:43.491Z,0
2016-04-09T02:41:57.806Z,0
2016-04-09T02:42:43.496Z,0
2016-04-09T02:43:43.686Z,0
2016-04-09T02:44:43.704Z,0
2016-04-09T02:45:43.504Z,0
2016-04-09T02:46:43.741Z,0
2016-04-09T02:47:43.478Z,0
2016-04-09T02:48:43.465Z,0
2016-04-09T02:49:43.468Z,0
2016-04-09T02:50:43.486Z,0
2016-04-09T02:51:42.989Z,0
2016-04-09T02:52:43.492Z,0
2016-04-09T02:53:43.728Z,0
2016-04-09T02:54:43.888Z,0
2016-04-09T02:55:43.702Z,0
2016-04-09T02:56:43.502Z,0
2016-04-09T02:57:43.489Z,0
2016-04-09T02:58:43.476Z,0
2016-04-09T02:59:57.573Z,0
2016-04-09T03:00:43.716Z,0
2016-04-09T03:01:43.485Z,0
2016-04-09T03:02:43.471Z,0
2016-04-09T03:03:43.474Z,0
2016-04-09T03:04:57.774Z,0
2016-04-09T03:05:43.495Z,0
2016-04-09T03:06:43.670Z,0
2016-04-09T03:07:43.469Z,0
2016-04-09T03:08:43.925Z,0
2016-04-09T03:09:43.474Z,0
2016-04-09T03:10:43.477Z,0
2016-04-09T03:11:43.698Z,0
2016-04-09T03:12:43.482Z,0
2016-04-09T03:13:57.595Z,0
2016-04-09T03:14:43.473Z,0
2016-04-09T03:15:43.460Z,0
2016-04-09T03:16:43.509Z,0
2016-04-09T03:17:43.465Z,0
2016-04-09T03:18:43.655Z,0
2016-04-09T03:19:43.189Z,0
2016-04-09T03:20:43.458Z,0
2016-04-09T03:21:43.460Z,0
2016-04-09T03:22:43.478Z,0
2016-04-09T03:23:43.683Z,0
2016-04-09T03:24:43.452Z,0
2016-04-09T03:25:43.471Z,0
2016-04-09T03:26:44.130Z,0
2016-04-09T03:27:58.398Z,0
2016-04-09T03:28:43.479Z,0
2016-04-09T03:29:43.466Z,0
2016-04-09T03:30:43.453Z,0
2016-04-09T03:31:43.658Z,0
2016-04-09T03:32:43.490Z,0
2016-04-09T03:33:43.164Z,0
2016-04-09T03:34:43.448Z,0
2016-04-09T03:35:43.499Z,0
2016-04-09T03:36:43.672Z,0
2016-04-09T03:37:43.519Z,0
2016-04-09T03:38:57.585Z,0
2016-04-09T03:39:43.462Z,0
2016-04-09T03:41:11.840Z,0
2016-04-09T03:41:43.685Z,0
2016-04-09T03:42:43.470Z,0
2016-04-09T03:43:43.457Z,0
2016-04-09T03:44:43.443Z,0
2016-04-09T03:45:43.665Z,0
2016-04-09T03:46:43.433Z,0
2016-04-09T03:47:43.467Z,0
2016-04-09T03:48:43.642Z,0
2016-04-09T03:49:43.442Z,0
2016-04-09T03:50:43.445Z,0
2016-04-09T03:51:43.447Z,0
2016-04-09T03:52:43.450Z,4
2016-04-09T03:53:43.671Z,4
2016-04-09T03:54:43.627Z,0
2016-04-09T03:55:43.442Z,4
2016-04-09T03:56:43.429Z,4
2016-04-09T03:57:43.635Z,4
2016-04-09T03:58:43.434Z,8
2016-04-09T03:59:43.468Z,8
2016-04-09T04:00:57.736Z,8
2016-04-09T04:01:43.411Z,12
2016-04-09T04:02:43.430Z,12
2016-04-09T04:03:43.449Z,16
2016-04-09T04:04:43.622Z,20
2016-04-09T04:05:43.641Z,20
2016-04-09T04:06:43.628Z,24
2016-04-09T04:07:43.630Z,28
2016-04-09T04:08:43.852Z,36
2016-04-09T04:09:44.057Z,44
2016-04-09T04:10:43.451Z,48
2016-04-09T04:11:43.626Z,52
2016-04-09T04:12:43.613Z,60
2016-04-09T04:13:42.976Z,68
2016-04-09T04:14:43.853Z,80
2016-04-09T04:15:43.418Z,88
2016-04-09T04:16:43.420Z,100
2016-04-09T04:17:43.470Z,112
2016-04-09T04:18:43.614Z,124
2016-04-09T04:19:43.428Z,132
2016-04-09T04:20:43.665Z,148
2016-04-09T04:21:43.433Z,160
2016-04-09T04:22:43.405Z,176
2016-04-09T04:23:43.423Z,192
2016-04-09T04:24:43.425Z,208
2016-04-09T04:25:43.633Z,224
2016-04-09T04:26:43.400Z,240
2016-04-09T04:27:43.809Z,256
2016-04-09T04:28:43.609Z,276
2016-04-09T04:29:43.847Z,292
2016-04-09T04:30:43.661Z,312
2016-04-09T04:31:43.399Z,332
2016-04-09T04:32:43.416Z,352
2016-04-09T04:33:43.622Z,376
2016-04-09T04:34:57.687Z,408
2016-04-09T04:35:43.377Z,424
2016-04-09T04:36:43.255Z,448
2016-04-09T04:37:43.585Z,480
2016-04-09T04:38:43.402Z,508
2016-04-09T04:39:43.404Z,540
2016-04-09T04:40:43.407Z,576
2016-04-09T04:41:43.410Z,612
2016-04-09T04:42:57.693Z,664
2016-04-09T04:43:57.524Z,704
2016-04-09T04:44:57.495Z,744
2016-04-09T04:45:43.467Z,776
2016-04-09T04:46:43.610Z,816
2016-04-09T04:47:43.612Z,860
2016-04-09T04:48:43.365Z,908
2016-04-09T04:49:43.400Z,952
2016-04-09T04:50:43.371Z,1012
2016-04-09T04:51:43.390Z,1076
2016-04-09T04:52:43.408Z,1132
2016-04-09T04:53:43.395Z,1192
2016-04-09T04:54:43.381Z,1252
2016-04-09T04:56:43.419Z,1384
2016-04-09T04:57:43.374Z,1448
2016-04-09T04:58:43.377Z,1504
2016-04-09T04:59:43.114Z,1564
2016-04-09T05:00:43.397Z,1628
2016-04-09T05:01:43.370Z,1684
2016-04-09T05:02:43.403Z,1756
2016-04-09T05:03:43.422Z,1820
2016-04-09T05:04:43.378Z,1884
2016-04-09T05:05:43.599Z,1948
2016-04-09T05:06:43.789Z,2016
2016-04-09T05:07:58.135Z,2096
2016-04-09T05:08:43.373Z,2148
2016-04-09T05:09:42.891Z,2212
2016-04-09T05:10:43.378Z,2268
2016-04-09T05:11:43.381Z,2328
2016-04-09T05:12:43.414Z,2396
2016-04-09T05:13:43.386Z,2456
2016-04-09T05:14:43.357Z,2528
2016-04-09T05:15:43.360Z,2608
2016-04-09T05:16:43.363Z,2676
2016-04-09T05:17:43.256Z,2764
2016-04-09T05:18:43.400Z,2848
2016-04-09T05:19:43.386Z,2936
2016-04-09T05:20:43.389Z,3032
2016-04-09T05:21:43.798Z,3136
2016-04-09T05:22:43.770Z,3236
2016-04-09T05:23:43.334Z,3332
2016-04-09T05:24:43.776Z,3432
2016-04-09T05:25:43.825Z,3532
2016-04-09T05:26:43.343Z,3616
2016-04-09T05:27:43.346Z,3692
2016-04-09T05:28:43.192Z,3752
2016-04-09T05:29:43.367Z,3824
2016-04-09T05:30:43.088Z,3900
2016-04-09T05:31:43.325Z,3964
2016-04-09T05:32:43.563Z,4020
2016-04-09T05:33:43.377Z,4080
2016-04-09T05:34:43.755Z,4144
2016-04-09T05:35:43.366Z,4224
2016-04-09T05:36:43.369Z,4308
2016-04-09T05:37:43.372Z,4388
2016-04-09T05:38:43.344Z,4484
2016-04-09T05:39:57.863Z,4612
2016-04-09T05:40:43.584Z,4680
2016-04-09T05:41:43.337Z,4748
2016-04-09T05:42:43.557Z,4816
2016-04-09T05:43:43.342Z,4884
2016-04-09T05:44:43.329Z,4948
2016-04-09T05:45:43.347Z,5012
2016-04-09T05:46:43.568Z,5084
2016-04-09T05:47:43.539Z,5176
2016-04-09T05:48:43.323Z,5260
2016-04-09T05:49:43.342Z,5332
2016-04-09T05:50:43.345Z,5400
2016-04-09T05:51:43.753Z,5468
2016-04-09T05:52:43.537Z,5544
2016-04-09T05:53:43.353Z,5612
2016-04-09T05:54:57.653Z,5676
2016-04-09T05:55:43.327Z,5724
2016-04-09T05:56:43.331Z,5784
2016-04-09T05:57:43.364Z,5868
2016-04-09T05:58:43.539Z,5940
2016-04-09T05:59:43.338Z,6020
2016-04-09T06:00:43.388Z,6088
2016-04-09T06:01:43.328Z,6144
2016-04-09T06:02:43.533Z,6212
2016-04-09T06:03:43.599Z,6288
2016-04-09T06:04:43.335Z,6372
2016-04-09T06:05:43.385Z,6460
2016-04-09T06:06:43.388Z,6560
2016-04-09T06:07:43.547Z,6668
2016-04-09T06:08:43.347Z,6776
2016-04-09T06:09:43.365Z,6900
2016-04-09T06:10:43.368Z,7024
2016-04-09T06:11:43.370Z,7132
2016-04-09T06:12:42.873Z,7212
2016-04-09T06:13:43.548Z,7272
2016-04-09T06:14:43.346Z,7344
2016-04-09T06:15:43.382Z,7420
2016-04-09T06:16:43.571Z,7504
2016-04-09T06:17:43.340Z,7592
2016-04-09T06:18:43.827Z,7684
2016-04-09T06:19:43.548Z,7792
2016-04-09T06:20:43.066Z,7904
2016-04-09T06:21:43.553Z,8024
2016-04-09T06:23:43.417Z,8224
2016-04-09T06:24:43.561Z,8280
2016-04-09T06:25:43.362Z,8336
2016-04-09T06:26:43.536Z,8388
2016-04-09T06:27:43.382Z,8432
2016-04-09T06:28:43.353Z,8492
2016-04-09T06:29:43.559Z,8556
2016-04-09T06:30:43.375Z,8628
2016-04-09T06:31:57.658Z,8732
2016-04-09T06:32:57.645Z,8820
2016-04-09T06:33:43.429Z,8872
2016-04-09T06:34:43.355Z,8932
2016-04-09T06:35:43.357Z,8996
2016-04-09T06:36:43.969Z,9080
2016-04-09T06:37:43.363Z,9168
2016-04-09T06:38:43.365Z,9268
2016-04-09T06:40:43.385Z,9452
2016-04-09T06:41:43.795Z,9528
2016-04-09T06:42:43.376Z,9624
2016-04-09T06:43:43.410Z,9716
2016-04-09T06:44:42.912Z,9796
2016-04-09T06:45:43.368Z,9848
2016-04-09T06:46:43.573Z,9896
2016-04-09T06:47:43.389Z,9984
2016-04-09T06:48:43.579Z,10092
2016-04-09T06:49:43.566Z,10192
2016-04-09T06:50:43.382Z,10320
2016-04-09T06:52:57.481Z,10584
2016-04-09T06:53:43.417Z,10716
2016-04-09T06:54:43.713Z,10804
2016-04-09T06:55:43.527Z,10892
2016-04-09T06:56:43.574Z,11020
2016-04-09T06:57:43.637Z,11120
2016-04-09T06:58:43.625Z,11216
2016-04-09T06:59:43.675Z,11288
2016-04-09T07:00:43.694Z,11368
2016-04-09T07:01:43.680Z,11424
2016-04-09T07:02:44.340Z,11520
2016-04-09T07:03:43.724Z,11644
2016-04-09T07:04:57.826Z,11788
2016-04-09T07:05:44.193Z,11860
2016-04-09T07:07:43.976Z,12076
2016-04-09T07:08:44.168Z,12172
2016-04-09T07:09:57.423Z,12264
2016-04-09T07:10:43.756Z,12328
2016-04-09T07:11:43.964Z,12448
2016-04-09T07:12:43.798Z,12576
2016-04-09T07:13:43.816Z,12676
2016-04-09T07:14:44.181Z,12768
2016-04-09T07:15:57.871Z,12888
2016-04-09T07:16:44.203Z,12892
2016-04-09T07:17:43.816Z,12920
2016-04-09T07:18:43.803Z,12956
2016-04-09T07:19:43.978Z,13012
2016-04-09T07:20:43.839Z,13076
2016-04-09T07:21:43.998Z,13152
2016-04-09T07:22:44.000Z,13224
2016-04-09T07:23:44.035Z,13276
2016-04-09T07:24:43.802Z,13336
2016-04-09T07:25:58.055Z,13428
2016-04-09T07:26:43.886Z,13484
2016-04-09T07:27:44.233Z,13552
2016-04-09T07:28:58.111Z,13640
2016-04-09T07:29:43.879Z,13700
2016-04-09T07:30:57.929Z,13796
2016-04-09T07:31:57.946Z,13888
2016-04-09T07:32:43.887Z,13984
2016-04-09T07:33:43.890Z,14116
2016-04-09T07:34:44.282Z,14264
2016-04-09T07:35:44.051Z,14420
2016-04-09T07:36:43.835Z,14568
2016-04-09T07:37:43.869Z,14692
2016-04-09T07:38:43.934Z,14784
2016-04-09T07:39:44.062Z,14892
2016-04-09T07:40:43.878Z,14964
2016-04-09T07:41:43.864Z,15012
2016-04-09T07:42:44.054Z,15100
2016-04-09T07:43:43.886Z,15132
2016-04-09T07:44:57.967Z,15192
2016-04-09T07:45:43.876Z,15224
2016-04-09T07:46:43.909Z,15248
2016-04-09T07:47:43.865Z,15304
2016-04-09T07:48:43.883Z,15316
2016-04-09T07:49:44.089Z,15348
2016-04-09T07:50:43.889Z,15364
2016-04-09T07:51:43.891Z,15376
2016-04-09T07:52:43.894Z,15392
2016-04-09T07:53:43.943Z,15412
2016-04-09T07:54:43.915Z,15456
2016-04-09T07:55:43.918Z,15496
2016-04-09T07:56:43.921Z,15580
2016-04-09T07:57:43.923Z,15716
2016-04-09T07:58:43.972Z,15828
2016-04-09T07:59:43.444Z,15908
2016-04-09T08:00:58.134Z,16160
2016-04-09T08:01:44.152Z,16192
2016-04-09T08:02:58.045Z,16192
2016-04-09T08:03:43.954Z,16192
2016-04-09T08:04:44.145Z,16256
2016-04-09T08:05:43.976Z,16288
2016-04-09T08:06:44.010Z,16320
2016-04-09T08:07:44.403Z,16384
2016-04-09T08:08:43.999Z,16384
2016-04-09T08:09:43.971Z,16416
2016-04-09T08:10:44.193Z,16480
2016-04-09T08:11:44.195Z,16544
2016-04-09T08:13:43.982Z,16768
2016-04-09T08:14:44.031Z,16896
2016-04-09T08:15:44.331Z,17024
2016-04-09T08:16:43.709Z,17088
2016-04-09T08:17:43.852Z,17152
2016-04-09T08:18:44.073Z,17184
2016-04-09T08:19:44.061Z,17184
2016-04-09T08:20:44.031Z,17184
2016-04-09T08:21:44.269Z,17152
2016-04-09T08:22:44.037Z,17184
2016-04-09T08:23:44.040Z,17248
2016-04-09T08:24:58.371Z,17376
2016-04-09T08:25:44.045Z,17440
2016-04-09T08:26:44.048Z,17568
2016-04-09T08:27:44.300Z,17664
2016-04-09T08:28:44.069Z,17696
2016-04-09T08:29:58.180Z,17824
2016-04-09T08:30:44.074Z,17856
2016-04-09T08:31:44.077Z,17888
2016-04-09T08:32:44.330Z,17888
2016-04-09T08:33:44.082Z,17824
2016-04-09T08:34:44.085Z,17760
2016-04-09T08:35:44.587Z,17728
2016-04-09T08:36:44.575Z,17760
2016-04-09T08:38:44.346Z,17888
2016-04-09T08:39:44.457Z,18016
2016-04-09T08:40:44.492Z,18144
2016-04-09T08:41:44.229Z,18240
2016-04-09T08:42:44.185Z,18368
2016-04-09T08:43:44.359Z,18432
2016-04-09T08:44:44.206Z,18464
2016-04-09T08:45:43.599Z,18464
2016-04-09T08:46:44.242Z,18464
2016-04-09T08:47:44.167Z,18464
2016-04-09T08:48:44.170Z,18528
2016-04-09T08:49:43.814Z,18560
2016-04-09T08:50:44.394Z,18624
2016-04-09T08:51:44.194Z,18720
2016-04-09T08:52:58.322Z,18816
2016-04-09T08:53:44.058Z,18912
2016-04-09T08:54:44.623Z,18976
2016-04-09T08:55:44.251Z,19136
2016-04-09T08:56:44.222Z,19296
2016-04-09T08:57:44.225Z,19456
2016-04-09T08:58:44.259Z,19584
2016-04-09T08:59:44.480Z,19712
2016-04-09T09:00:44.263Z,19744
2016-04-09T09:01:44.267Z,19744
2016-04-09T09:02:44.285Z,19744
2016-04-09T09:03:44.663Z,19776
2016-04-09T09:04:43.525Z,19808
2016-04-09T09:05:44.278Z,19968
2016-04-09T09:06:44.515Z,20096
2016-04-09T09:07:44.315Z,20288
2016-04-09T09:08:44.505Z,20320
2016-04-09T09:09:58.789Z,20288
2016-04-09T09:10:58.621Z,20224
2016-04-09T09:11:58.624Z,20160
2016-04-09T09:12:44.329Z,20192
2016-04-09T09:13:44.113Z,20256
2016-04-09T09:14:44.725Z,20352
2016-04-09T09:15:44.352Z,20448
2016-04-09T09:16:44.387Z,20512
2016-04-09T09:17:44.357Z,20576
2016-04-09T09:18:44.610Z,20640
2016-04-09T09:19:44.379Z,20704
2016-04-09T09:20:44.631Z,20800
2016-04-09T09:21:58.696Z,20832
2016-04-09T09:22:44.606Z,20896
2016-04-09T09:23:44.406Z,20864
2016-04-09T09:24:44.454Z,20832
2016-04-09T09:25:44.661Z,20864
2016-04-09T09:26:44.632Z,20864
2016-04-09T09:27:45.056Z,20832
2016-04-09T09:28:44.465Z,20832
2016-04-09T09:29:44.703Z,20896
2016-04-09T09:30:44.659Z,20992
2016-04-09T09:31:44.473Z,21088
2016-04-09T09:33:44.729Z,21184
2016-04-09T09:34:58.997Z,21248
2016-04-09T09:35:44.906Z,21280
2016-04-09T09:36:44.941Z,21344
2016-04-09T09:37:44.708Z,21472
2016-04-09T09:38:44.727Z,21568
2016-04-09T09:39:44.527Z,21632
2016-04-09T09:40:44.763Z,21728
2016-04-09T09:41:44.532Z,21824
2016-04-09T09:42:58.832Z,21920
2016-04-09T09:43:44.537Z,21920
2016-04-09T09:44:44.555Z,21856
2016-04-09T09:45:45.168Z,21760
2016-04-09T09:46:45.030Z,21696
2016-04-09T09:47:44.610Z,21696
2016-04-09T09:48:45.051Z,21696
2016-04-09T09:49:45.151Z,21760
2016-04-09T09:50:44.592Z,21760
2016-04-09T09:51:44.625Z,21728
2016-04-09T09:52:44.734Z,21760
2016-04-09T09:53:44.627Z,21856
2016-04-09T09:54:44.615Z,21920
2016-04-09T09:55:44.852Z,21984
2016-04-09T09:56:58.714Z,21952
2016-04-09T09:57:44.669Z,21920
2016-04-09T09:58:44.657Z,21920
2016-04-09T09:59:44.674Z,21984
2016-04-09T10:00:58.663Z,22144
2016-04-09T10:01:59.088Z,22336
2016-04-09T10:02:44.934Z,22400
2016-04-09T10:03:44.734Z,22560
2016-04-09T10:04:58.986Z,22784
2016-04-09T10:05:44.724Z,22816
2016-04-09T10:06:44.741Z,22848
2016-04-09T10:07:44.730Z,22816
2016-04-09T10:08:44.716Z,22688
2016-04-09T10:09:44.750Z,22656
2016-04-09T10:10:44.738Z,22656
2016-04-09T10:11:45.161Z,22656
2016-04-09T10:12:44.755Z,22656
2016-04-09T10:13:44.773Z,22688
2016-04-09T10:14:58.874Z,22720
2016-04-09T10:15:44.795Z,22720
2016-04-09T10:16:44.813Z,22816
2016-04-09T10:17:44.674Z,22944
2016-04-09T10:18:45.007Z,23104
2016-04-09T10:19:59.199Z,23232
2016-04-09T10:20:44.808Z,23392
2016-04-09T10:21:44.890Z,23456
2016-04-09T10:22:45.532Z,23456
2016-04-09T10:23:44.848Z,23552
2016-04-09T10:24:44.365Z,23616
2016-04-09T10:25:45.056Z,23552
2016-04-09T10:26:44.887Z,23456
2016-04-09T10:27:44.874Z,23392
2016-04-09T10:28:45.127Z,23328
2016-04-09T10:29:44.926Z,23264
2016-04-09T10:30:44.991Z,23168
2016-04-09T10:31:44.931Z,23072
2016-04-09T10:32:45.325Z,22944
2016-04-09T10:33:45.156Z,22880
2016-04-09T10:34:44.939Z,22816
2016-04-09T10:35:45.364Z,22752
2016-04-09T10:36:44.961Z,22720
2016-04-09T10:37:45.964Z,22848
2016-04-09T10:38:44.982Z,23072
2016-04-09T10:39:44.984Z,23264
2016-04-09T10:40:44.986Z,23392
2016-04-09T10:41:44.490Z,23520
2016-04-09T10:42:44.992Z,23648
2016-04-09T10:43:45.011Z,23808
2016-04-09T10:45:45.047Z,24192
2016-04-09T10:46:45.019Z,24128
2016-04-09T10:47:45.037Z,24128
2016-04-09T10:48:45.040Z,24224
2016-04-09T10:49:45.058Z,24352
2016-04-09T10:50:45.061Z,24416
2016-04-09T10:52:05.285Z,24448
2016-04-09T10:53:45.115Z,24352
2016-04-09T10:54:45.103Z,24416
2016-04-09T10:55:45.137Z,24352
2016-04-09T10:56:45.359Z,24288
2016-04-09T10:57:45.002Z,24256
2016-04-09T10:58:45.582Z,24288
2016-04-09T10:59:45.662Z,24320
2016-04-09T11:00:45.759Z,24320
2016-04-09T11:01:59.875Z,24320
2016-04-09T11:02:45.187Z,24288
2016-04-09T11:03:45.487Z,24192
2016-04-09T11:04:45.474Z,24032
2016-04-09T11:05:45.195Z,23904
2016-04-09T11:06:45.228Z,23776
2016-04-09T11:07:44.731Z,23616
2016-04-09T11:08:45.219Z,23584
2016-04-09T11:09:45.519Z,23552
2016-04-09T11:10:45.239Z,23616
2016-04-09T11:11:45.259Z,23680
2016-04-09T11:12:45.479Z,23616
2016-04-09T11:13:45.622Z,23552
2016-04-09T11:14:45.282Z,23520
2016-04-09T11:15:45.519Z,23552
2016-04-09T11:16:46.163Z,23616
2016-04-09T11:17:45.508Z,23776
2016-04-09T11:18:45.668Z,23968
2016-04-09T11:19:45.357Z,24128
2016-04-09T11:20:45.532Z,24288
2016-04-09T11:21:45.535Z,24672
2016-04-09T11:22:45.444Z,25056
2016-04-09T11:23:45.634Z,25312
2016-04-09T11:24:45.762Z,25600
2016-04-09T11:25:45.358Z,25760
2016-04-09T11:26:46.002Z,25760
2016-04-09T11:28:59.713Z,25536
2016-04-09T11:29:45.416Z,25408
2016-04-09T11:30:45.434Z,25248
2016-04-09T11:31:45.421Z,25152
2016-04-09T11:32:45.987Z,24960
2016-04-09T11:34:45.461Z,24448
2016-04-09T11:35:45.463Z,24224
2016-04-09T11:36:45.748Z,23904
2016-04-09T11:37:59.580Z,23456
2016-04-09T11:38:45.486Z,23200
2016-04-09T11:39:45.895Z,23008
2016-04-09T11:40:45.492Z,22944
2016-04-09T11:41:45.713Z,22880
2016-04-09T11:42:45.513Z,22784
2016-04-09T11:43:45.516Z,22816
2016-04-09T11:44:45.738Z,23072
2016-04-09T11:45:45.536Z,23232
2016-04-09T11:46:45.743Z,23328
2016-04-09T11:47:47.011Z,23648
2016-04-09T11:48:45.763Z,23968
2016-04-09T11:49:46.016Z,24160
2016-04-09T11:50:45.566Z,24384
2016-04-09T11:51:45.584Z,24576
2016-04-09T11:52:45.618Z,24800
2016-04-09T11:53:45.933Z,25152
2016-04-09T11:54:46.279Z,25440
2016-04-09T11:55:45.876Z,25440
2016-04-09T11:56:59.959Z,25216
2016-04-09T11:57:45.678Z,25056
2016-04-09T11:58:46.103Z,24896
2016-04-09T11:59:59.968Z,24416
2016-04-09T12:00:45.171Z,24352
2016-04-09T12:01:46.064Z,24288
2016-04-09T12:02:59.804Z,23456
2016-04-09T12:03:45.710Z,22944
2016-04-09T12:04:45.712Z,22720
2016-04-09T12:05:59.828Z,22304
2016-04-09T12:06:45.750Z,22048
2016-04-09T12:07:45.939Z,21472
2016-04-09T12:08:45.973Z,20896
2016-04-09T12:09:45.789Z,20448
2016-04-09T12:10:45.791Z,20160
2016-04-09T12:11:46.028Z,19968
2016-04-09T12:12:45.813Z,19904
2016-04-09T12:13:46.002Z,19936
2016-04-09T12:14:45.802Z,20000
2016-04-09T12:15:45.805Z,20448
2016-04-09T12:16:45.824Z,20960
2016-04-09T12:17:46.263Z,21280
2016-04-09T12:18:59.941Z,21376
2016-04-09T12:19:46.160Z,21568
2016-04-09T12:20:45.865Z,22016
2016-04-09T12:21:45.883Z,22336
2016-04-09T12:22:45.886Z,22688
2016-04-09T12:23:46.092Z,23072
2016-04-09T12:24:46.110Z,23232
2016-04-09T12:25:46.113Z,22976
2016-04-09T12:26:46.334Z,23168
2016-04-09T12:27:45.931Z,23648
2016-04-09T12:28:45.934Z,23936
2016-04-09T12:29:45.780Z,23264
2016-04-09T12:30:46.157Z,22464
2016-04-09T12:31:46.176Z,21344
2016-04-09T12:32:45.976Z,20512
2016-04-09T12:33:46.213Z,20384
2016-04-09T12:34:45.919Z,21120
2016-04-09T12:36:00.315Z,20992
2016-04-09T12:36:46.034Z,21024
2016-04-09T12:37:46.005Z,21280
2016-04-09T12:39:00.339Z,20928
2016-04-09T12:40:00.389Z,20608
2016-04-09T12:40:46.107Z,20320
2016-04-09T12:41:46.297Z,20032
2016-04-09T12:42:46.127Z,19648
2016-04-09T12:43:46.317Z,19392
2016-04-09T12:45:00.589Z,18944
2016-04-09T12:45:46.308Z,18784
2016-04-09T12:46:46.373Z,18688
2016-04-09T12:47:46.126Z,18880
2016-04-09T12:48:46.144Z,19232
2016-04-09T12:49:46.365Z,19424
2016-04-09T12:50:46.555Z,19680
2016-04-09T12:51:46.761Z,20544
2016-04-09T12:52:46.358Z,21024
2016-04-09T12:53:46.377Z,21312
2016-04-09T12:54:46.177Z,20544
2016-04-09T12:55:46.429Z,19840
2016-04-09T12:56:45.774Z,19392
2016-04-09T12:57:46.246Z,18944
2016-04-09T12:58:46.452Z,18720
2016-04-09T12:59:46.268Z,18752
2016-04-09T13:00:45.785Z,19008
2016-04-09T13:01:46.460Z,19424
2016-04-09T13:02:46.323Z,19840
2016-04-09T13:03:46.293Z,20224
2016-04-09T13:04:46.499Z,20736
2016-04-09T13:05:46.534Z,21216
2016-04-09T13:06:46.302Z,21888
2016-04-09T13:08:00.461Z,22048
2016-04-09T13:08:46.510Z,22112
2016-04-09T13:09:46.325Z,21920
2016-04-09T13:10:46.344Z,21696
2016-04-09T13:11:46.378Z,21440
2016-04-09T13:12:46.350Z,21312
2016-04-09T13:15:46.686Z,20704
2016-04-09T13:17:00.781Z,20704
2016-04-09T13:17:46.488Z,20832
2016-04-09T13:18:46.427Z,20992
2016-04-09T13:19:46.446Z,21120
2016-04-09T13:20:46.449Z,21312
2016-04-09T13:21:46.874Z,21088
2016-04-09T13:22:46.455Z,21024
2016-04-09T13:23:46.488Z,21184
2016-04-09T13:24:46.507Z,21344
2016-04-09T13:25:46.510Z,21504
2016-04-09T13:26:45.996Z,21600
2016-04-09T13:27:46.936Z,21568
2016-04-09T13:28:46.720Z,21376
2016-04-09T13:29:46.521Z,21344
2016-04-09T13:30:46.757Z,21248
2016-04-09T13:31:46.807Z,21280
2016-04-09T13:32:46.559Z,21280
2016-04-09T13:33:46.765Z,21536
2016-04-09T13:34:46.830Z,22112
2016-04-09T13:35:46.568Z,21984
2016-04-09T13:36:46.602Z,21856
2016-04-09T13:37:46.634Z,21888
2016-04-09T13:38:46.606Z,22080
2016-04-09T13:39:46.625Z,22080
2016-04-09T13:40:46.675Z,21920
2016-04-09T13:43:46.198Z,21216
2016-04-09T13:44:46.685Z,20960
2016-04-09T13:45:46.673Z,20640
2016-04-09T13:46:46.691Z,20384
2016-04-09T13:47:46.740Z,20064
2016-04-09T13:48:47.118Z,19776